createdAt,value
2019-05-25T00:02:28.256Z,52.05
2019-05-25T00:05:53.923Z,51.89
2019-05-25T00:09:19.591Z,51.59
2019-05-25T00:12:45.186Z,52.00
2019-05-25T00:16:10.777Z,51.72
2019-05-25T00:19:36.379Z,51.58
2019-05-25T00:23:02.940Z,51.10
2019-05-25T00:26:28.565Z,51.31
2019-05-25T00:29:54.382Z,51.33
2019-05-25T00:33:20.949Z,51.77
2019-05-25T00:36:46.852Z,51.40
2019-05-25T00:40:13.029Z,51.98
2019-05-25T00:43:38.642Z,51.55
2019-05-25T00:47:04.332Z,52.34
2019-05-25T00:50:29.926Z,52.76
2019-05-25T00:53:55.526Z,52.87
2019-05-25T00:57:21.123Z,52.90
2019-05-25T01:00:46.750Z,52.38
2019-05-25T01:04:12.334Z,52.16
2019-05-25T01:07:37.928Z,52.52
2019-05-25T01:11:03.580Z,52.43
2019-05-25T01:14:29.172Z,52.82
2019-05-25T01:17:54.765Z,52.49
2019-05-25T01:21:20.362Z,52.83
2019-05-25T01:24:45.977Z,52.80
2019-05-25T01:28:11.982Z,52.71
2019-05-25T01:31:37.576Z,53.08
2019-05-25T01:35:05.288Z,52.86
2019-05-25T01:38:30.971Z,52.90
2019-05-25T01:41:56.566Z,52.62
2019-05-25T01:45:22.158Z,52.84
2019-05-25T01:48:47.746Z,53.18
2019-05-25T01:52:13.333Z,53.08
2019-05-25T01:55:38.974Z,53.43
2019-05-25T01:59:04.628Z,53.83
2019-05-25T02:02:30.741Z,54.17
2019-05-25T02:05:56.328Z,54.22
2019-05-25T02:09:22.179Z,53.87
2019-05-25T02:12:47.835Z,53.75
2019-05-25T02:16:13.442Z,54.77
2019-05-25T02:19:39.027Z,54.66
2019-05-25T02:23:04.642Z,54.64
2019-05-25T02:26:30.235Z,54.92
2019-05-25T02:29:55.840Z,55.08
2019-05-25T02:33:21.433Z,55.10
2019-05-25T02:36:47.023Z,55.97
2019-05-25T02:40:12.821Z,56.09
2019-05-25T02:43:38.609Z,55.77
2019-05-25T02:47:04.290Z,55.54
2019-05-25T02:50:29.899Z,55.98
2019-05-25T02:53:55.487Z,56.63
2019-05-25T02:57:21.104Z,56.72
2019-05-25T03:00:46.738Z,56.92
2019-05-25T03:04:12.583Z,56.73
2019-05-25T03:07:40.223Z,57.16
2019-05-25T03:11:05.986Z,57.43
2019-05-25T03:14:31.898Z,57.43
2019-05-25T03:17:57.482Z,58.01
2019-05-25T03:21:23.557Z,58.48
2019-05-25T03:24:49.143Z,57.90
2019-05-25T03:28:15.722Z,57.38
2019-05-25T03:31:41.308Z,58.03
2019-05-25T03:35:08.328Z,57.59
2019-05-25T03:38:33.908Z,58.26
2019-05-25T03:41:59.589Z,58.46
2019-05-25T03:45:25.182Z,58.38
2019-05-25T03:48:50.817Z,59.07
2019-05-25T03:52:16.394Z,58.82
2019-05-25T03:55:41.986Z,59.03
2019-05-25T03:59:07.645Z,58.01
2019-05-25T04:02:33.244Z,58.34
2019-05-25T04:05:58.827Z,58.89
2019-05-25T04:09:24.415Z,58.73
2019-05-25T04:12:50.031Z,59.03
2019-05-25T04:16:15.626Z,58.92
2019-05-25T04:19:41.478Z,58.72
2019-05-25T04:23:07.060Z,58.57
2019-05-25T04:26:32.666Z,58.92
2019-05-25T04:29:58.252Z,58.65
2019-05-25T04:33:23.875Z,58.63
2019-05-25T04:36:49.467Z,58.45
2019-05-25T04:40:15.257Z,57.92
2019-05-25T04:43:40.856Z,58.32
2019-05-25T04:47:06.445Z,58.25
2019-05-25T04:50:32.060Z,58.36
2019-05-25T04:53:58.702Z,57.79
2019-05-25T04:57:24.294Z,58.08
2019-05-25T05:00:49.892Z,57.74
2019-05-25T05:04:15.474Z,58.26
2019-05-25T05:07:41.063Z,57.94
2019-05-25T05:11:06.838Z,56.91
2019-05-25T05:14:32.491Z,56.38
2019-05-25T05:17:58.049Z,55.67
2019-05-25T05:21:23.699Z,55.19
2019-05-25T05:24:49.292Z,54.97
2019-05-25T05:28:14.898Z,54.48
2019-05-25T05:31:40.564Z,54.44
2019-05-25T05:35:08.611Z,54.40
2019-05-25T05:38:36.017Z,54.56
2019-05-25T05:42:04.348Z,54.29
2019-05-25T05:45:33.635Z,54.30
2019-05-25T05:48:59.475Z,53.90
2019-05-25T05:52:29.476Z,53.41
2019-05-25T05:55:55.083Z,53.28
2019-05-25T05:59:20.675Z,53.25
2019-05-25T06:02:46.284Z,52.60
2019-05-25T06:06:11.874Z,52.82
2019-05-25T06:09:37.974Z,52.35
2019-05-25T06:13:03.563Z,52.55
2019-05-25T06:16:29.494Z,52.44
2019-05-25T06:19:55.090Z,52.41
2019-05-25T06:23:20.697Z,52.10
2019-05-25T06:26:46.281Z,51.95
2019-05-25T06:30:13.188Z,51.22
2019-05-25T06:33:38.828Z,50.28
2019-05-25T06:37:04.420Z,50.16
2019-05-25T06:40:30.029Z,49.87
2019-05-25T06:43:55.628Z,49.20
2019-05-25T06:47:21.227Z,48.02
2019-05-25T06:50:46.850Z,47.83
2019-05-25T06:54:12.452Z,47.65
2019-05-25T06:57:43.143Z,47.23
2019-05-25T07:01:05.543Z,46.99
2019-05-25T07:04:31.151Z,47.07
2019-05-25T07:07:56.754Z,45.61
2019-05-25T07:11:22.345Z,46.04
2019-05-25T07:14:47.965Z,46.20
2019-05-25T07:18:14.521Z,46.22
2019-05-25T07:21:40.128Z,46.38
2019-05-25T07:25:09.543Z,45.65
2019-05-25T07:28:35.140Z,45.88
2019-05-25T07:32:00.730Z,45.24
2019-05-25T07:35:26.339Z,45.17
2019-05-25T07:38:51.947Z,45.36
2019-05-25T07:42:19.973Z,45.21
2019-05-25T07:45:45.081Z,45.32
2019-05-25T07:49:10.675Z,44.85
2019-05-25T07:52:36.287Z,44.67
2019-05-25T07:56:01.880Z,44.40
2019-05-25T07:59:27.490Z,44.34
2019-05-25T08:02:53.077Z,44.35
2019-05-25T08:06:18.676Z,44.25
2019-05-25T08:09:44.287Z,43.79
2019-05-25T08:13:09.915Z,43.29
2019-05-25T08:16:35.519Z,42.94
2019-05-25T08:20:01.107Z,42.74
2019-05-25T08:23:26.737Z,42.66
2019-05-25T08:26:52.293Z,43.40
2019-05-25T08:30:18.102Z,43.23
2019-05-25T08:33:43.697Z,42.65
2019-05-25T08:37:09.304Z,42.14
2019-05-25T08:40:34.891Z,40.74
2019-05-25T08:44:04.292Z,39.85
2019-05-25T08:47:27.870Z,39.14
2019-05-25T08:50:53.492Z,38.56
2019-05-25T08:54:19.076Z,38.32
2019-05-25T08:57:44.688Z,38.93
2019-05-25T09:01:10.304Z,38.36
2019-05-25T09:04:35.899Z,37.90
2019-05-25T09:08:01.499Z,38.36
2019-05-25T09:11:27.131Z,38.71
2019-05-25T09:14:52.774Z,38.21
2019-05-25T09:18:19.355Z,40.10
2019-05-25T09:22:00.997Z,38.56
2019-05-25T09:25:12.435Z,39.28
2019-05-25T09:28:38.038Z,39.95
2019-05-25T09:32:06.848Z,39.52
2019-05-25T09:35:30.930Z,39.56
2019-05-25T09:38:56.535Z,38.85
2019-05-25T09:42:22.126Z,39.79
2019-05-25T09:45:47.725Z,38.04
2019-05-25T09:49:13.333Z,39.25
2019-05-25T09:52:38.927Z,40.64
2019-05-25T09:56:04.687Z,39.44
2019-05-25T09:59:31.320Z,38.41
2019-05-25T10:02:56.924Z,40.27
2019-05-25T10:06:22.518Z,38.47
2019-05-25T10:09:48.129Z,39.97
2019-05-25T10:13:14.015Z,39.33
2019-05-25T10:16:39.623Z,39.03
2019-05-25T10:20:06.722Z,39.05
2019-05-25T10:23:33.068Z,36.51
2019-05-25T10:26:58.646Z,37.13
2019-05-25T10:30:24.911Z,34.53
2019-05-25T10:33:50.726Z,33.61
2019-05-25T10:37:16.319Z,33.32
2019-05-25T10:40:41.918Z,32.89
2019-05-25T10:44:07.663Z,33.52
2019-05-25T10:47:33.259Z,32.28
2019-05-25T10:50:58.868Z,33.05
2019-05-25T10:54:24.455Z,32.20
2019-05-25T10:57:50.070Z,32.76
2019-05-25T11:01:15.660Z,32.43
2019-05-25T11:04:41.298Z,32.06
2019-05-25T11:08:06.883Z,31.69
2019-05-25T11:11:32.487Z,32.50
2019-05-25T11:14:58.090Z,32.13
2019-05-25T11:18:23.683Z,32.47
2019-05-25T11:21:49.696Z,31.91
2019-05-25T11:25:16.250Z,32.98
2019-05-25T11:28:41.872Z,32.27
2019-05-25T11:32:07.752Z,31.84
2019-05-25T11:35:33.887Z,30.72
2019-05-25T11:38:59.812Z,31.28
2019-05-25T11:42:25.464Z,33.08
2019-05-25T11:45:51.091Z,29.76
2019-05-25T11:49:22.472Z,30.70
2019-05-25T11:52:44.413Z,31.95
2019-05-25T11:56:09.994Z,33.18
2019-05-25T11:59:35.604Z,32.46
2019-05-25T12:03:01.190Z,33.18
2019-05-25T12:06:26.832Z,31.74
2019-05-25T12:09:52.441Z,32.72
2019-05-25T12:13:18.038Z,31.52
2019-05-25T12:16:43.632Z,31.55
2019-05-25T12:20:10.294Z,31.02
2019-05-25T12:23:35.857Z,28.38
2019-05-25T12:27:01.931Z,29.96
2019-05-25T12:30:40.368Z,29.69
2019-05-25T12:33:55.330Z,31.03
2019-05-25T12:37:20.925Z,35.83
2019-05-25T12:40:53.645Z,40.52
2019-05-25T12:44:15.498Z,43.09
2019-05-25T12:47:41.138Z,44.70
2019-05-25T12:51:07.628Z,45.01
2019-05-25T12:54:33.908Z,45.20
2019-05-25T12:57:59.490Z,45.76
2019-05-25T13:01:25.097Z,44.63
2019-05-25T13:04:50.725Z,43.72
2019-05-25T13:08:16.340Z,42.95
2019-05-25T13:11:42.447Z,42.78
2019-05-25T13:15:08.833Z,41.43
2019-05-25T13:18:34.421Z,42.24
2019-05-25T13:22:00.502Z,41.90
2019-05-25T13:25:26.131Z,41.66
2019-05-25T13:28:52.766Z,40.86
2019-05-25T13:32:18.730Z,41.25
2019-05-25T13:35:44.352Z,40.03
2019-05-25T13:39:09.943Z,39.87
2019-05-25T13:42:35.668Z,38.05
2019-05-25T13:46:01.275Z,37.16
2019-05-25T13:49:27.835Z,37.34
2019-05-25T13:52:53.426Z,36.52
2019-05-25T13:56:19.074Z,36.63
2019-05-25T13:59:44.619Z,39.15
2019-05-25T14:03:11.234Z,36.73
2019-05-25T14:06:36.796Z,35.73
2019-05-25T14:10:02.401Z,34.36
2019-05-25T14:13:28.263Z,31.81
2019-05-25T14:16:54.127Z,30.48
2019-05-25T14:20:20.130Z,32.45
2019-05-25T14:23:45.747Z,33.39
2019-05-25T14:27:11.403Z,35.70
2019-05-25T14:30:37.082Z,37.39
2019-05-25T14:34:02.670Z,36.76
2019-05-25T14:37:28.286Z,34.93
2019-05-25T14:40:53.878Z,34.52
2019-05-25T14:44:20.565Z,32.44
2019-05-25T14:47:46.175Z,31.33
2019-05-25T14:51:11.790Z,33.77
2019-05-25T14:54:37.402Z,33.64
2019-05-25T14:58:03.166Z,33.26
2019-05-25T15:01:28.782Z,31.58
2019-05-25T15:04:55.210Z,27.95
2019-05-25T15:08:20.811Z,25.40
2019-05-25T15:11:46.454Z,23.79
2019-05-25T15:15:13.716Z,24.38
2019-05-25T15:18:39.344Z,23.27
2019-05-25T15:22:05.484Z,23.00
2019-05-25T15:25:31.536Z,24.69
2019-05-25T15:28:57.371Z,25.21
2019-05-25T15:32:23.282Z,23.98
2019-05-25T15:35:48.977Z,23.20
2019-05-25T15:39:14.633Z,23.12
2019-05-25T15:42:41.915Z,24.22
2019-05-25T15:46:07.796Z,24.49
2019-05-25T15:49:33.956Z,24.55
2019-05-25T15:52:59.707Z,25.42
2019-05-25T15:56:25.296Z,21.65
2019-05-25T15:59:50.942Z,20.23
2019-05-25T16:03:18.851Z,20.07
2019-05-25T16:06:45.443Z,20.25
2019-05-25T16:10:12.373Z,21.02
2019-05-25T16:13:38.131Z,21.33
2019-05-25T16:17:03.897Z,20.68
2019-05-25T16:20:29.521Z,22.21
2019-05-25T16:23:55.111Z,20.43
2019-05-25T16:27:20.712Z,19.58
2019-05-25T16:30:46.310Z,23.63
2019-05-25T16:34:11.921Z,28.27
2019-05-25T16:37:37.903Z,31.65
2019-05-25T16:41:03.969Z,32.67
2019-05-25T16:44:29.562Z,28.30
2019-05-25T16:47:55.165Z,26.31
2019-05-25T16:51:21.823Z,22.11
2019-05-25T16:54:47.449Z,21.23
2019-05-25T16:58:13.037Z,23.53
2019-05-25T17:01:48.194Z,29.46
2019-05-25T17:05:07.520Z,31.05
2019-05-25T17:08:33.160Z,25.38
2019-05-25T17:11:58.738Z,22.89
2019-05-25T17:15:25.476Z,22.41
2019-05-25T17:18:51.073Z,21.99
2019-05-25T17:22:16.683Z,23.79
2019-05-25T17:25:42.270Z,29.33
2019-05-25T17:29:08.228Z,30.85
2019-05-25T17:32:33.828Z,33.11
2019-05-25T17:35:59.431Z,30.16
2019-05-25T17:39:25.019Z,31.42
2019-05-25T17:42:50.632Z,33.75
2019-05-25T17:46:16.240Z,35.03
2019-05-25T17:49:42.137Z,36.99
2019-05-25T17:53:07.733Z,32.01
2019-05-25T17:56:33.333Z,30.36
2019-05-25T17:59:59.731Z,30.51
2019-05-25T18:03:26.785Z,33.18
2019-05-25T18:06:52.435Z,35.88
2019-05-25T18:10:18.216Z,37.88
2019-05-25T18:13:43.808Z,38.89
2019-05-25T18:17:09.439Z,40.06
2019-05-25T18:20:35.184Z,41.34
2019-05-25T18:24:00.899Z,41.96
2019-05-25T18:27:26.491Z,41.72
2019-05-25T18:30:52.103Z,39.92
2019-05-25T18:34:21.970Z,39.88
2019-05-25T18:37:44.997Z,40.98
2019-05-25T18:41:10.591Z,44.87
2019-05-25T18:44:36.209Z,48.64
2019-05-25T18:48:01.812Z,48.98
2019-05-25T18:51:27.421Z,50.85
2019-05-25T18:54:53.017Z,52.21
2019-05-25T18:58:18.608Z,52.19
2019-05-25T19:01:44.210Z,53.63
2019-05-25T19:05:10.356Z,54.01
2019-05-25T19:08:36.005Z,53.66
2019-05-25T19:12:02.073Z,53.35
2019-05-25T19:15:27.839Z,53.62
2019-05-25T19:18:53.450Z,51.43
2019-05-25T19:22:19.047Z,47.74
2019-05-25T19:25:44.667Z,46.52
2019-05-25T19:29:10.361Z,46.62
2019-05-25T19:32:35.996Z,46.68
2019-05-25T19:36:01.563Z,47.30
2019-05-25T19:39:27.355Z,47.51
2019-05-25T19:42:52.940Z,47.96
2019-05-25T19:46:18.628Z,48.61
2019-05-25T19:49:45.288Z,48.99
2019-05-25T19:53:10.896Z,48.97
2019-05-25T19:56:36.486Z,49.54
2019-05-25T20:00:02.511Z,49.99
2019-05-25T20:03:28.298Z,50.51
2019-05-25T20:06:53.896Z,50.66
2019-05-25T20:10:20.388Z,50.86
2019-05-25T20:13:45.997Z,51.01
2019-05-25T20:17:11.587Z,51.02
2019-05-25T20:20:37.189Z,50.94
2019-05-25T20:24:02.834Z,51.41
2019-05-25T20:27:28.474Z,51.66
2019-05-25T20:30:54.080Z,51.73
2019-05-25T20:34:19.677Z,51.92
2019-05-25T20:37:45.357Z,52.66
2019-05-25T20:41:10.948Z,53.61
2019-05-25T20:44:36.556Z,54.11
2019-05-25T20:48:02.174Z,54.11
2019-05-25T20:51:27.830Z,54.22
2019-05-25T20:54:53.475Z,54.27
2019-05-25T20:58:19.063Z,54.38
2019-05-25T21:01:44.668Z,53.93
2019-05-25T21:05:10.555Z,54.10
2019-05-25T21:08:36.145Z,53.83
2019-05-25T21:12:01.741Z,54.10
2019-05-25T21:15:27.354Z,54.38
2019-05-25T21:18:52.947Z,55.19
2019-05-25T21:22:19.964Z,55.99
2019-05-25T21:25:46.190Z,56.85
2019-05-25T21:29:11.785Z,56.70
2019-05-25T21:32:37.452Z,56.84
2019-05-25T21:36:08.740Z,57.23
2019-05-25T21:39:30.367Z,57.45
2019-05-25T21:42:55.975Z,57.38
2019-05-25T21:46:21.734Z,58.46
2019-05-25T21:49:47.375Z,58.52
2019-05-25T21:53:12.997Z,58.46
2019-05-25T21:56:38.644Z,59.05
2019-05-25T22:00:08.177Z,59.00
2019-05-25T22:03:34.974Z,59.15
2019-05-25T22:07:00.641Z,59.17
2019-05-25T22:10:27.305Z,59.10
2019-05-25T22:13:52.894Z,58.83
2019-05-25T22:17:18.486Z,58.97
2019-05-25T22:20:44.078Z,59.47
2019-05-25T22:24:09.967Z,59.69
2019-05-25T22:27:35.557Z,59.86
2019-05-25T22:31:01.167Z,60.07
2019-05-25T22:34:26.753Z,60.74
2019-05-25T22:37:52.351Z,60.85
2019-05-25T22:41:19.977Z,62.03
2019-05-25T22:44:45.250Z,62.69
2019-05-25T22:48:10.837Z,62.85
2019-05-25T22:51:36.447Z,63.00
2019-05-25T22:55:02.265Z,63.01
2019-05-25T22:58:28.226Z,63.43
2019-05-25T23:01:53.824Z,62.66
2019-05-25T23:05:19.501Z,63.15
2019-05-25T23:08:45.114Z,63.75
2019-05-25T23:12:10.713Z,63.67
2019-05-25T23:15:36.298Z,63.92
2019-05-25T23:19:01.900Z,64.40
2019-05-25T23:22:27.501Z,63.99
2019-05-25T23:25:53.111Z,63.62
2019-05-25T23:29:18.693Z,64.11
2019-05-25T23:32:44.278Z,65.13
2019-05-25T23:36:09.866Z,65.07
2019-05-25T23:39:35.523Z,65.45
2019-05-25T23:43:01.119Z,65.38
2019-05-25T23:46:26.707Z,65.74
2019-05-25T23:49:52.315Z,66.43
2019-05-25T23:53:17.895Z,66.87
2019-05-25T23:56:43.493Z,67.17
